Terminal Aerodrome Forecast
Issued by NWS

Home | Current Version | Previous Version | Text Only | Print | Product List | Glossary On
Versions: 1 2 3 4 5 6 7 8 9 10 11 12
000
FTPQ31 PGUM 291135
TAFGUM
TAF

TAF
PGSN 291135Z 2912/3012 15008KT P6SM FEW020
     FM300000 14010KT P6SM VCSH SCT020 SCT040=

USA.gov is the U.S. government's official web portal to all federal, state and local government web resources and services.